createdAt,value
2023-05-05T00:00:03.256Z,86.57
2023-05-05T00:01:03.233Z,86.88
2023-05-05T00:02:03.229Z,86.77
2023-05-05T00:03:03.294Z,86.71
2023-05-05T00:04:03.251Z,86.71
2023-05-05T00:05:03.210Z,86.51
2023-05-05T00:06:03.125Z,86.71
2023-05-05T00:07:03.086Z,86.61
2023-05-05T00:08:03.067Z,87.52
2023-05-05T00:09:03.077Z,87.83
2023-05-05T00:10:03.011Z,87.93
2023-05-05T00:11:03.074Z,87.37
2023-05-05T00:12:03.014Z,87.52
2023-05-05T00:13:02.999Z,87.43
2023-05-05T00:14:02.916Z,87.43
2023-05-05T00:15:02.887Z,87.16
2023-05-05T00:16:02.871Z,87.57
2023-05-05T00:17:02.884Z,88.18
2023-05-05T00:18:02.894Z,88.38
2023-05-05T00:19:02.793Z,87.46
2023-05-05T00:20:02.772Z,87.67
2023-05-05T00:21:02.757Z,88.38
2023-05-05T00:22:02.720Z,88.07
2023-05-05T00:23:02.695Z,88.18
2023-05-05T00:24:02.671Z,89.19
2023-05-05T00:25:02.671Z,89.19
2023-05-05T00:26:02.650Z,88.78
2023-05-05T00:27:02.600Z,89.19
2023-05-05T00:28:02.578Z,89.39
2023-05-05T00:29:02.552Z,89.09
2023-05-05T00:30:02.528Z,89.33
2023-05-05T00:31:02.524Z,88.62
2023-05-05T00:32:02.481Z,88.82
2023-05-05T00:33:02.498Z,89.23
2023-05-05T00:34:02.433Z,88.73
2023-05-05T00:35:02.412Z,89.03
2023-05-05T00:36:02.385Z,89.33
2023-05-05T00:37:02.357Z,89.74
2023-05-05T00:38:02.336Z,89.58
2023-05-05T00:39:02.307Z,89.74
2023-05-05T00:40:02.298Z,89.48
2023-05-05T00:41:02.273Z,89.54
2023-05-05T00:42:02.240Z,89.23
2023-05-05T00:43:02.216Z,89.13
2023-05-05T00:44:02.190Z,89.78
2023-05-05T00:45:02.160Z,90.19
2023-05-05T00:46:02.251Z,90.09
2023-05-05T00:47:02.110Z,91.20
2023-05-05T00:48:02.111Z,89.98
2023-05-05T00:49:02.088Z,90.80
2023-05-05T00:50:02.046Z,90.90
2023-05-05T00:51:02.015Z,91.00
2023-05-05T00:52:01.986Z,90.80
2023-05-05T00:53:02.023Z,91.10
2023-05-05T00:54:01.936Z,91.30
2023-05-05T00:55:01.918Z,91.20
2023-05-05T00:56:01.892Z,91.30
2023-05-05T00:57:01.884Z,91.30
2023-05-05T00:58:01.843Z,91.30
2023-05-05T00:59:01.815Z,91.20
2023-05-05T01:00:01.790Z,91.61
2023-05-05T01:01:01.769Z,92.22
2023-05-05T01:02:01.884Z,91.20
2023-05-05T01:03:01.844Z,91.30
2023-05-05T01:04:01.733Z,91.91
2023-05-05T01:05:01.689Z,91.91
2023-05-05T01:06:01.660Z,92.63
2023-05-05T01:07:01.615Z,93.03
2023-05-05T01:08:01.591Z,92.97
2023-05-05T01:09:01.575Z,93.03
2023-05-05T01:10:18.055Z,93.03
2023-05-05T01:11:01.517Z,92.36
2023-05-05T01:12:01.498Z,92.22
2023-05-05T01:13:01.519Z,91.96
2023-05-05T01:14:01.461Z,92.02
2023-05-05T01:15:01.424Z,91.65
2023-05-05T01:16:01.460Z,92.02
2023-05-05T01:17:01.373Z,92.02
2023-05-05T01:18:01.389Z,91.65
2023-05-05T01:19:01.328Z,91.55
2023-05-05T01:20:01.294Z,91.35
2023-05-05T01:21:01.269Z,91.35
2023-05-05T01:22:01.262Z,91.35
2023-05-05T01:23:01.236Z,91.30
2023-05-05T01:24:01.215Z,91.55
2023-05-05T01:25:01.174Z,91.65
2023-05-05T01:26:01.147Z,91.82
2023-05-05T01:27:01.117Z,91.71
2023-05-05T01:28:01.098Z,91.82
2023-05-05T01:29:01.091Z,92.42
2023-05-05T01:30:01.083Z,92.12
2023-05-05T01:31:01.022Z,91.82
2023-05-05T01:32:01.041Z,91.51
2023-05-05T01:33:00.976Z,91.10
2023-05-05T01:34:00.958Z,91.41
2023-05-05T01:35:00.922Z,91.41
2023-05-05T01:36:00.896Z,91.91
2023-05-05T01:37:00.868Z,91.82
2023-05-05T01:38:00.845Z,91.91
2023-05-05T01:39:00.824Z,92.22
2023-05-05T01:40:00.793Z,92.16
2023-05-05T01:41:00.770Z,92.12
2023-05-05T01:42:00.747Z,92.16
2023-05-05T01:43:00.739Z,92.87
2023-05-05T01:44:00.699Z,92.87
2023-05-05T01:45:00.712Z,92.72
2023-05-05T01:46:00.664Z,92.77
2023-05-05T01:47:00.641Z,92.77
2023-05-05T01:48:00.610Z,93.18
2023-05-05T01:49:00.573Z,93.18
2023-05-05T01:50:00.560Z,93.59
2023-05-05T01:51:00.521Z,93.99
2023-05-05T01:52:00.496Z,94.40
2023-05-05T01:53:00.470Z,93.79
2023-05-05T01:54:00.447Z,93.59
2023-05-05T01:55:00.423Z,94.09
2023-05-05T01:56:00.397Z,93.83
2023-05-05T01:57:00.375Z,93.48
2023-05-05T01:58:00.351Z,93.93
2023-05-05T01:59:00.389Z,93.63
2023-05-05T02:00:00.303Z,93.73
2023-05-05T02:01:00.377Z,93.32
2023-05-05T02:02:00.403Z,92.91
2023-05-05T02:03:00.311Z,93.52
2023-05-05T02:04:00.198Z,93.22
2023-05-05T02:05:00.181Z,93.02
2023-05-05T02:06:00.147Z,93.43
2023-05-05T02:07:00.160Z,93.22
2023-05-05T02:08:00.160Z,93.32
2023-05-05T02:09:00.123Z,93.52
2023-05-05T02:10:00.050Z,93.02
2023-05-05T02:11:00.027Z,92.91
2023-05-05T02:12:00.022Z,92.82
2023-05-05T02:13:00.031Z,92.35
2023-05-05T02:14:00.018Z,92.21
2023-05-05T02:14:59.927Z,92.41
2023-05-05T02:15:59.921Z,92.14
2023-05-05T02:16:59.900Z,91.23
2023-05-05T02:17:59.925Z,91.29
2023-05-05T02:18:59.824Z,90.68
2023-05-05T02:19:59.811Z,90.99
2023-05-05T02:20:59.782Z,90.78
2023-05-05T02:21:59.757Z,90.68
2023-05-05T02:22:59.728Z,89.97
2023-05-05T02:23:59.703Z,90.99
2023-05-05T02:24:59.679Z,91.09
2023-05-05T02:25:59.655Z,90.99
2023-05-05T02:26:59.630Z,90.92
2023-05-05T02:27:59.603Z,90.88
2023-05-05T02:28:59.580Z,91.09
2023-05-05T02:29:59.555Z,90.68
2023-05-05T02:30:59.665Z,90.78
2023-05-05T02:31:59.501Z,91.29
2023-05-05T02:32:59.532Z,90.88
2023-05-05T02:33:59.456Z,91.29
2023-05-05T02:34:59.430Z,90.78
2023-05-05T02:35:59.405Z,91.39
2023-05-05T02:36:59.380Z,91.39
2023-05-05T02:37:59.357Z,91.29
2023-05-05T02:38:59.327Z,91.69
2023-05-05T02:39:59.305Z,91.55
2023-05-05T02:40:59.282Z,91.39
2023-05-05T02:41:59.257Z,91.29
2023-05-05T02:42:59.249Z,91.86
2023-05-05T02:43:59.206Z,91.39
2023-05-05T02:44:59.181Z,91.19
2023-05-05T02:45:59.168Z,91.14
2023-05-05T02:46:59.141Z,91.55
2023-05-05T02:47:59.155Z,91.55
2023-05-05T02:48:59.107Z,91.55
2023-05-05T02:49:59.061Z,91.55
2023-05-05T02:50:59.030Z,91.05
2023-05-05T02:51:59.003Z,91.05
2023-05-05T02:52:58.979Z,91.86
2023-05-05T02:53:58.955Z,92.26
2023-05-05T02:54:58.931Z,91.75
2023-05-05T02:55:58.909Z,91.65
2023-05-05T02:56:58.886Z,91.55
2023-05-05T02:57:58.857Z,91.35
2023-05-05T02:58:58.829Z,91.45
2023-05-05T02:59:58.815Z,91.41
2023-05-05T03:00:58.778Z,91.45
2023-05-05T03:01:58.917Z,91.25
2023-05-05T03:02:58.834Z,91.55
2023-05-05T03:03:58.716Z,91.25
2023-05-05T03:04:58.696Z,91.55
2023-05-05T03:05:58.658Z,91.45
2023-05-05T03:06:58.625Z,91.35
2023-05-05T03:07:58.603Z,91.30
2023-05-05T03:08:58.580Z,91.25
2023-05-05T03:09:58.558Z,91.35
2023-05-05T03:10:58.536Z,91.55
2023-05-05T03:11:58.551Z,91.45
2023-05-05T03:12:58.530Z,91.45
2023-05-05T03:13:58.461Z,91.45
2023-05-05T03:14:58.433Z,91.65
2023-05-05T03:15:58.421Z,92.06
2023-05-05T03:16:58.401Z,92.26
2023-05-05T03:17:58.388Z,92.06
2023-05-05T03:18:58.329Z,91.96
2023-05-05T03:19:58.301Z,93.07
2023-05-05T03:20:58.298Z,92.97
2023-05-05T03:21:58.257Z,92.63
2023-05-05T03:22:58.232Z,92.87
2023-05-05T03:23:58.203Z,92.16
2023-05-05T03:24:58.179Z,91.20
2023-05-05T03:25:58.156Z,90.74
2023-05-05T03:26:58.129Z,90.49
2023-05-05T03:27:58.104Z,90.49
2023-05-05T03:28:58.077Z,91.10
2023-05-05T03:29:58.058Z,91.51
2023-05-05T03:30:58.029Z,91.41
2023-05-05T03:31:58.012Z,91.10
2023-05-05T03:32:57.998Z,91.10
2023-05-05T03:33:57.957Z,90.59
2023-05-05T03:34:57.931Z,91.20
2023-05-05T03:35:57.905Z,91.20
2023-05-05T03:36:57.903Z,91.10
2023-05-05T03:37:57.859Z,90.70
2023-05-05T03:38:57.830Z,90.90
2023-05-05T03:39:57.808Z,90.80
2023-05-05T03:40:57.780Z,90.49
2023-05-05T03:41:57.757Z,90.80
2023-05-05T03:42:57.730Z,90.70
2023-05-05T03:43:57.705Z,90.59
2023-05-05T03:44:57.682Z,90.49
2023-05-05T03:45:57.697Z,90.29
2023-05-05T03:46:57.643Z,90.70
2023-05-05T03:47:57.634Z,90.74
2023-05-05T03:48:57.581Z,90.80
2023-05-05T03:49:57.555Z,90.29
2023-05-05T03:50:57.533Z,90.64
2023-05-05T03:51:57.507Z,91.00
2023-05-05T03:52:57.502Z,89.58
2023-05-05T03:53:57.457Z,89.37
2023-05-05T03:54:57.435Z,88.76
2023-05-05T03:55:57.410Z,88.81
2023-05-05T03:56:57.384Z,89.62
2023-05-05T03:57:57.364Z,89.68
2023-05-05T03:58:57.336Z,89.62
2023-05-05T03:59:57.309Z,88.81
2023-05-05T04:00:57.289Z,89.22
2023-05-05T04:01:57.296Z,89.11
2023-05-05T04:02:57.343Z,89.52
2023-05-05T04:03:57.290Z,89.15
2023-05-05T04:04:57.186Z,89.36
2023-05-05T04:05:57.170Z,89.87
2023-05-05T04:06:57.135Z,89.97
2023-05-05T04:07:57.127Z,90.27
2023-05-05T04:08:57.108Z,90.62
2023-05-05T04:09:57.061Z,91.43
2023-05-05T04:10:57.037Z,92.00
2023-05-05T04:11:57.009Z,91.60
2023-05-05T04:12:57.114Z,91.69
2023-05-05T04:13:56.964Z,91.64
2023-05-05T04:14:56.937Z,91.39
2023-05-05T04:15:56.967Z,91.19
2023-05-05T04:16:56.891Z,92.35
2023-05-05T04:17:56.883Z,92.55
2023-05-05T04:18:56.870Z,93.37
2023-05-05T04:19:56.812Z,93.06
2023-05-05T04:20:56.788Z,92.76
2023-05-05T04:21:56.766Z,91.39
2023-05-05T04:22:56.741Z,92.55
2023-05-05T04:23:56.723Z,92.76
2023-05-05T04:24:56.703Z,93.67
2023-05-05T04:25:56.664Z,93.51
2023-05-05T04:26:56.646Z,93.51
2023-05-05T04:27:56.612Z,94.02
2023-05-05T04:28:56.587Z,93.51
2023-05-05T04:29:56.559Z,93.01
2023-05-05T04:30:56.555Z,93.31
2023-05-05T04:31:56.510Z,93.10
2023-05-05T04:32:56.647Z,93.41
2023-05-05T04:33:56.460Z,92.90
2023-05-05T04:34:56.454Z,93.21
2023-05-05T04:35:56.408Z,92.19
2023-05-05T04:36:56.384Z,91.99
2023-05-05T04:37:56.354Z,91.64
2023-05-05T04:38:56.447Z,91.43
2023-05-05T04:39:56.308Z,91.43
2023-05-05T04:40:56.301Z,91.33
2023-05-05T04:41:56.258Z,90.27
2023-05-05T04:42:56.237Z,91.13
2023-05-05T04:43:56.205Z,91.03
2023-05-05T04:44:56.182Z,90.78
2023-05-05T04:45:56.154Z,90.11
2023-05-05T04:46:56.178Z,90.37
2023-05-05T04:47:56.191Z,89.76
2023-05-05T04:48:56.081Z,90.72
2023-05-05T04:49:56.065Z,91.03
2023-05-05T04:50:56.031Z,91.29
2023-05-05T04:51:56.003Z,91.03
2023-05-05T04:52:55.982Z,91.60
2023-05-05T04:53:55.954Z,91.94
2023-05-05T04:54:55.936Z,92.35
2023-05-05T04:55:55.905Z,92.96
2023-05-05T04:56:55.907Z,93.16
2023-05-05T04:57:55.857Z,92.35
2023-05-05T04:58:55.833Z,92.35
2023-05-05T04:59:55.810Z,92.65
2023-05-05T05:00:55.789Z,92.35
2023-05-05T05:01:55.779Z,92.14
2023-05-05T05:02:55.776Z,91.94
2023-05-05T05:03:55.911Z,92.65
2023-05-05T05:04:55.678Z,92.25
2023-05-05T05:05:55.653Z,93.06
2023-05-05T05:06:58.363Z,91.90
2023-05-05T05:07:55.600Z,92.82
2023-05-05T05:08:55.579Z,93.02
2023-05-05T05:09:55.559Z,93.12
2023-05-05T05:10:55.530Z,93.12
2023-05-05T05:11:55.503Z,93.48
2023-05-05T05:12:55.544Z,92.91
2023-05-05T05:13:55.450Z,93.38
2023-05-05T05:14:55.431Z,93.18
2023-05-05T05:15:55.402Z,92.97
2023-05-05T05:16:55.424Z,92.87
2023-05-05T05:17:55.396Z,92.77
2023-05-05T05:18:55.341Z,93.18
2023-05-05T05:19:55.306Z,93.59
2023-05-05T05:20:55.275Z,93.28
2023-05-05T05:21:55.250Z,93.79
2023-05-05T05:22:55.228Z,93.59
2023-05-05T05:23:55.195Z,94.35
2023-05-05T05:24:55.176Z,94.66
2023-05-05T05:25:55.151Z,93.54
2023-05-05T05:26:55.135Z,93.74
2023-05-05T05:28:06.117Z,93.40
2023-05-05T05:28:55.097Z,93.29
2023-05-05T05:29:55.049Z,92.07
2023-05-05T05:30:55.041Z,92.48
2023-05-05T05:31:55.020Z,92.07
2023-05-05T05:32:55.019Z,92.24
2023-05-05T05:33:54.968Z,91.73
2023-05-05T05:34:54.926Z,91.22
2023-05-05T05:35:54.899Z,91.52
2023-05-05T05:36:54.872Z,92.49
2023-05-05T05:37:54.849Z,91.99
2023-05-05T05:38:54.831Z,90.26
2023-05-05T05:39:54.807Z,90.77
2023-05-05T05:40:54.779Z,90.77
2023-05-05T05:41:54.750Z,91.17
2023-05-05T05:42:54.750Z,90.93
2023-05-05T05:43:54.702Z,91.03
2023-05-05T05:44:54.694Z,91.34
2023-05-05T05:45:54.693Z,91.03
2023-05-05T05:46:54.627Z,90.73
2023-05-05T05:47:54.791Z,90.83
2023-05-05T05:48:54.583Z,90.83
2023-05-05T05:49:54.549Z,89.57
2023-05-05T05:50:54.528Z,89.57
2023-05-05T05:51:54.502Z,89.47
2023-05-05T05:52:54.488Z,89.77
2023-05-05T05:53:56.316Z,89.12
2023-05-05T05:54:54.431Z,87.65
2023-05-05T05:55:54.402Z,87.30
2023-05-05T05:56:54.391Z,87.40
2023-05-05T05:57:54.358Z,87.81
2023-05-05T05:58:54.331Z,86.90
2023-05-05T05:59:54.321Z,86.55
2023-05-05T06:00:54.300Z,86.35
2023-05-05T06:01:54.255Z,86.55
2023-05-05T06:02:54.411Z,86.05
2023-05-05T06:03:54.255Z,86.21
2023-05-05T06:04:54.179Z,86.55
2023-05-05T06:05:54.179Z,86.21
2023-05-05T06:06:54.140Z,86.82
2023-05-05T06:07:54.108Z,86.31
2023-05-05T06:08:54.090Z,86.00
2023-05-05T06:09:54.058Z,84.69
2023-05-05T06:10:54.040Z,85.60
2023-05-05T06:11:54.014Z,85.36
2023-05-05T06:12:54.084Z,85.76
2023-05-05T06:13:53.963Z,84.55
2023-05-05T06:14:53.939Z,84.25
2023-05-05T06:15:53.955Z,84.14
2023-05-05T06:16:53.919Z,83.70
2023-05-05T06:17:53.932Z,83.90
2023-05-05T06:18:53.841Z,83.60
2023-05-05T06:19:54.593Z,81.88
2023-05-05T06:20:53.796Z,82.79
2023-05-05T06:21:53.768Z,83.40
2023-05-05T06:22:53.746Z,82.75
2023-05-05T06:23:53.718Z,83.26
2023-05-05T06:24:53.698Z,82.75
2023-05-05T06:25:53.671Z,82.24
2023-05-05T06:26:53.649Z,82.24
2023-05-05T06:27:53.622Z,80.29
2023-05-05T06:28:53.601Z,80.29
2023-05-05T06:29:53.581Z,80.49
2023-05-05T06:30:53.553Z,80.79
2023-05-05T06:31:53.560Z,81.50
2023-05-05T06:32:53.630Z,80.55
2023-05-05T06:33:53.485Z,79.94
2023-05-05T06:34:53.507Z,80.05
2023-05-05T06:35:53.440Z,79.04
2023-05-05T06:36:53.455Z,80.05
2023-05-05T06:37:53.426Z,78.63
2023-05-05T06:38:53.363Z,79.74
2023-05-05T06:39:53.346Z,78.43
2023-05-05T06:40:53.320Z,78.03
2023-05-05T06:41:53.294Z,78.88
2023-05-05T06:42:53.281Z,78.13
2023-05-05T06:43:53.244Z,78.43
2023-05-05T06:44:53.230Z,79.04
2023-05-05T06:45:53.198Z,77.79
2023-05-05T06:46:53.218Z,76.48
2023-05-05T06:47:53.160Z,77.19
2023-05-05T06:48:53.273Z,76.28
2023-05-05T06:49:53.104Z,76.04
2023-05-05T06:50:53.081Z,76.54
2023-05-05T06:51:53.055Z,75.80
2023-05-05T06:52:53.036Z,75.50
2023-05-05T06:53:53.009Z,73.38
2023-05-05T06:54:52.987Z,72.34
2023-05-05T06:55:52.969Z,71.91
2023-05-05T06:56:52.938Z,72.31
2023-05-05T06:57:52.914Z,70.86
2023-05-05T06:58:52.901Z,69.85
2023-05-05T06:59:52.873Z,69.15
2023-05-05T07:00:52.918Z,69.96
2023-05-05T07:01:52.825Z,67.94
2023-05-05T07:02:52.850Z,68.91
2023-05-05T07:03:52.828Z,67.91
2023-05-05T07:04:52.893Z,68.51
2023-05-05T07:05:52.731Z,69.32
2023-05-05T07:06:52.712Z,68.31
2023-05-05T07:07:52.694Z,66.60
2023-05-05T07:08:52.667Z,66.17
2023-05-05T07:09:52.648Z,66.20
2023-05-05T07:10:52.629Z,66.30
2023-05-05T07:11:52.591Z,67.11
2023-05-05T07:12:52.724Z,67.81
2023-05-05T07:13:52.554Z,68.11
2023-05-05T07:14:52.552Z,67.41
2023-05-05T07:15:52.503Z,68.82
2023-05-05T07:16:52.500Z,68.91
2023-05-05T07:17:52.486Z,70.09
2023-05-05T07:18:52.437Z,67.00
2023-05-05T07:19:52.413Z,65.09
2023-05-05T07:20:52.627Z,65.02
2023-05-05T07:21:52.368Z,65.73
2023-05-05T07:22:52.400Z,66.83
2023-05-05T07:23:52.321Z,68.04
2023-05-05T07:24:52.300Z,68.44
2023-05-05T07:25:52.281Z,68.15
2023-05-05T07:26:52.283Z,68.15
2023-05-05T07:27:52.236Z,66.43
2023-05-05T07:28:52.208Z,67.34
2023-05-05T07:29:52.183Z,68.55
2023-05-05T07:30:52.164Z,66.77
2023-05-05T07:31:52.248Z,66.87
2023-05-05T07:32:52.157Z,67.07
2023-05-05T07:33:52.097Z,67.27
2023-05-05T07:34:52.082Z,66.47
2023-05-05T07:35:52.051Z,66.36
2023-05-05T07:36:52.119Z,69.09
2023-05-05T07:37:52.001Z,67.47
2023-05-05T07:38:52.007Z,67.47
2023-05-05T07:39:51.966Z,67.57
2023-05-05T07:40:51.938Z,66.87
2023-05-05T07:41:51.913Z,67.47
2023-05-05T07:42:51.889Z,67.88
2023-05-05T07:43:51.875Z,68.88
2023-05-05T07:44:51.837Z,67.44
2023-05-05T07:45:51.878Z,67.94
2023-05-05T07:46:51.798Z,67.17
2023-05-05T07:47:51.803Z,67.17
2023-05-05T07:48:51.747Z,67.57
2023-05-05T07:49:51.722Z,68.18
2023-05-05T07:50:51.702Z,69.79
2023-05-05T07:51:51.676Z,71.80
2023-05-05T07:52:59.273Z,70.36
2023-05-05T07:53:51.629Z,70.46
2023-05-05T07:54:51.609Z,68.38
2023-05-05T07:55:51.584Z,68.08
2023-05-05T07:56:51.562Z,67.47
2023-05-05T07:57:51.534Z,68.28
2023-05-05T07:58:51.514Z,67.17
2023-05-05T07:59:51.495Z,67.24
2023-05-05T08:00:51.476Z,69.15
2023-05-05T08:01:52.521Z,67.64
2023-05-05T08:02:51.478Z,67.03
2023-05-05T08:03:51.474Z,67.94
2023-05-05T08:04:51.394Z,66.53
2023-05-05T08:05:51.890Z,67.64
2023-05-05T08:06:51.332Z,67.97
2023-05-05T08:07:51.324Z,67.54
2023-05-05T08:08:51.449Z,68.38
2023-05-05T08:09:51.266Z,70.09
2023-05-05T08:10:51.235Z,70.06
2023-05-05T08:11:51.215Z,69.15
2023-05-05T08:12:51.203Z,69.15
2023-05-05T08:13:51.184Z,68.71
2023-05-05T08:14:51.145Z,67.71
2023-05-05T08:15:51.205Z,67.71
2023-05-05T08:16:51.116Z,67.91
2023-05-05T08:17:51.142Z,66.60
2023-05-05T08:18:51.058Z,67.41
2023-05-05T08:19:51.040Z,65.80
2023-05-05T08:20:51.007Z,66.80
2023-05-05T08:21:51.000Z,68.11
2023-05-05T08:22:50.962Z,67.44
2023-05-05T08:23:50.939Z,67.54
2023-05-05T08:24:51.035Z,67.91
2023-05-05T08:25:50.897Z,67.51
2023-05-05T08:26:50.880Z,67.31
2023-05-05T08:27:50.853Z,67.51
2023-05-05T08:28:50.825Z,67.47
2023-05-05T08:29:50.812Z,66.77
2023-05-05T08:30:50.781Z,66.37
2023-05-05T08:31:50.813Z,65.36
2023-05-05T08:32:50.784Z,65.73
2023-05-05T08:33:50.712Z,65.67
2023-05-05T08:34:50.689Z,66.64
2023-05-05T08:35:50.669Z,65.84
2023-05-05T08:36:50.640Z,66.34
2023-05-05T08:37:50.651Z,67.01
2023-05-05T08:38:50.597Z,66.71
2023-05-05T08:39:50.577Z,65.88
2023-05-05T08:40:50.780Z,64.97
2023-05-05T08:41:50.533Z,64.47
2023-05-05T08:42:50.509Z,65.04
2023-05-05T08:43:50.517Z,64.74
2023-05-05T08:44:50.464Z,64.51
2023-05-05T08:45:50.441Z,63.90
2023-05-05T08:46:50.440Z,65.31
2023-05-05T08:47:50.398Z,62.87
2023-05-05T08:48:50.370Z,62.77
2023-05-05T08:49:50.348Z,63.17
2023-05-05T08:50:50.323Z,61.47
2023-05-05T08:51:50.304Z,63.87
2023-05-05T08:52:51.287Z,64.48
2023-05-05T08:53:50.259Z,62.27
2023-05-05T08:54:50.235Z,63.90
2023-05-05T08:55:50.215Z,64.21
2023-05-05T08:56:50.281Z,62.47
2023-05-05T08:57:50.169Z,62.27
2023-05-05T08:58:50.149Z,63.67
2023-05-05T08:59:50.125Z,62.57
2023-05-05T09:00:50.122Z,62.24
2023-05-05T09:01:50.079Z,60.84
2023-05-05T09:02:50.231Z,62.74
2023-05-05T09:03:50.039Z,61.51
2023-05-05T09:04:50.019Z,62.28
2023-05-05T09:05:49.994Z,62.08
2023-05-05T09:06:49.975Z,61.38
2023-05-05T09:07:49.951Z,61.11
2023-05-05T09:08:49.936Z,61.21
2023-05-05T09:09:49.907Z,61.51
2023-05-05T09:10:49.893Z,62.71
2023-05-05T09:11:49.866Z,62.31
2023-05-05T09:12:50.089Z,62.98
2023-05-05T09:13:49.823Z,63.68
2023-05-05T09:14:49.801Z,60.78
2023-05-05T09:15:49.779Z,61.58
2023-05-05T09:16:49.812Z,58.35
2023-05-05T09:17:49.750Z,59.15
2023-05-05T09:18:49.722Z,61.55
2023-05-05T09:19:49.692Z,62.55
2023-05-05T09:20:49.674Z,60.55
2023-05-05T09:21:49.658Z,60.55
2023-05-05T09:22:49.629Z,62.75
2023-05-05T09:23:49.615Z,59.75
2023-05-05T09:24:49.591Z,58.45
2023-05-05T09:25:49.573Z,58.98
2023-05-05T09:26:49.550Z,58.68
2023-05-05T09:27:49.539Z,60.78
2023-05-05T09:28:49.598Z,60.91
2023-05-05T09:29:49.490Z,61.67
2023-05-05T09:30:49.501Z,61.77
2023-05-05T09:31:49.455Z,62.60
2023-05-05T09:32:49.470Z,65.08
2023-05-05T09:33:49.409Z,64.15
2023-05-05T09:34:49.379Z,62.11
2023-05-05T09:35:49.366Z,62.58
2023-05-05T09:36:49.338Z,61.25
2023-05-05T09:37:49.318Z,59.28
2023-05-05T09:38:49.302Z,60.01
2023-05-05T09:39:49.280Z,58.78
2023-05-05T09:40:49.265Z,58.68
2023-05-05T09:41:49.251Z,58.75
2023-05-05T09:42:49.215Z,60.55
2023-05-05T09:43:49.197Z,59.45
2023-05-05T09:44:49.269Z,60.35
2023-05-05T09:45:49.157Z,58.65
2023-05-05T09:46:49.205Z,60.02
2023-05-05T09:47:49.263Z,61.02
2023-05-05T09:48:49.087Z,58.92
2023-05-05T09:49:49.070Z,60.19
2023-05-05T09:50:49.049Z,58.29
2023-05-05T09:51:49.035Z,60.82
2023-05-05T09:52:49.144Z,60.62
2023-05-05T09:53:48.987Z,60.32
2023-05-05T09:54:48.976Z,60.10
2023-05-05T09:55:48.954Z,60.06
2023-05-05T09:56:48.922Z,61.07
2023-05-05T09:57:48.903Z,60.77
2023-05-05T09:58:48.934Z,60.24
2023-05-05T09:59:48.863Z,59.94
2023-05-05T10:00:48.910Z,61.30
2023-05-05T10:01:48.859Z,58.18
2023-05-05T10:02:48.837Z,58.78
2023-05-05T10:03:48.780Z,57.68
2023-05-05T10:04:48.843Z,57.65
2023-05-05T10:05:48.746Z,55.76
2023-05-05T10:06:48.727Z,58.06
2023-05-05T10:07:48.708Z,58.45
2023-05-05T10:08:48.679Z,56.88
2023-05-05T10:09:48.657Z,56.18
2023-05-05T10:10:48.652Z,56.04
2023-05-05T10:11:48.619Z,56.16
2023-05-05T10:12:48.611Z,58.54
2023-05-05T10:13:48.579Z,58.34
2023-05-05T10:14:48.560Z,58.37
2023-05-05T10:15:48.567Z,58.00
2023-05-05T10:16:48.630Z,57.59
2023-05-05T10:18:02.193Z,58.62
2023-05-05T10:18:48.479Z,58.32
2023-05-05T10:19:48.459Z,58.85
2023-05-05T10:20:48.453Z,58.62
2023-05-05T10:21:48.419Z,58.89
2023-05-05T10:22:48.411Z,58.29
2023-05-05T10:23:48.415Z,58.22
2023-05-05T10:24:48.359Z,59.15
2023-05-05T10:25:48.340Z,58.62
2023-05-05T10:26:48.325Z,58.99
2023-05-05T10:27:48.306Z,60.39
2023-05-05T10:28:48.287Z,59.34
2023-05-05T10:29:48.272Z,56.44
2023-05-05T10:30:48.243Z,58.01
2023-05-05T10:31:48.238Z,56.09
2023-05-05T10:32:59.863Z,55.96
2023-05-05T10:33:48.248Z,55.96
2023-05-05T10:34:48.166Z,57.41
2023-05-05T10:35:48.150Z,57.01
2023-05-05T10:36:48.132Z,57.64
2023-05-05T10:37:48.109Z,58.04
2023-05-05T10:38:48.086Z,57.79
2023-05-05T10:39:48.078Z,58.80
2023-05-05T10:40:48.051Z,58.72
2023-05-05T10:41:48.044Z,58.45
2023-05-05T10:42:48.028Z,60.48
2023-05-05T10:43:47.991Z,63.68
2023-05-05T10:44:47.971Z,60.98
2023-05-05T10:45:48.058Z,59.58
2023-05-05T10:46:47.940Z,60.25
2023-05-05T10:47:47.959Z,58.72
2023-05-05T10:48:47.969Z,58.49
2023-05-05T10:49:47.879Z,58.59
2023-05-05T10:50:47.853Z,59.69
2023-05-05T10:51:47.832Z,58.39
2023-05-05T10:52:47.814Z,58.69
2023-05-05T10:53:47.818Z,58.56
2023-05-05T10:54:47.791Z,57.74
2023-05-05T10:55:47.755Z,58.94
2023-05-05T10:56:47.735Z,56.64
2023-05-05T10:57:47.716Z,56.37
2023-05-05T10:58:59.128Z,57.46
2023-05-05T10:59:47.856Z,56.77
2023-05-05T11:00:47.692Z,55.64
2023-05-05T11:01:47.649Z,56.51
2023-05-05T11:02:47.638Z,56.31
2023-05-05T11:03:47.615Z,55.94
2023-05-05T11:04:47.684Z,57.54
2023-05-05T11:05:47.558Z,58.01
2023-05-05T11:06:47.538Z,58.41
2023-05-05T11:07:47.534Z,57.61
2023-05-05T11:08:47.498Z,57.01
2023-05-05T11:09:47.477Z,58.01
2023-05-05T11:10:47.457Z,56.09
2023-05-05T11:11:47.438Z,57.58
2023-05-05T11:12:47.457Z,57.88
2023-05-05T11:13:47.400Z,53.19
2023-05-05T11:14:47.390Z,54.39
2023-05-05T11:15:47.357Z,55.49
2023-05-05T11:16:47.434Z,54.79
2023-05-05T11:17:47.323Z,57.65
2023-05-05T11:18:47.300Z,56.36
2023-05-05T11:19:47.296Z,56.33
2023-05-05T11:20:47.377Z,55.73
2023-05-05T11:21:47.240Z,53.61
2023-05-05T11:22:47.217Z,52.72
2023-05-05T11:23:47.229Z,53.91
2023-05-05T11:24:47.196Z,53.19
2023-05-05T11:25:47.169Z,54.61
2023-05-05T11:26:47.143Z,55.58
2023-05-05T11:27:47.122Z,55.48
2023-05-05T11:28:47.104Z,55.95
2023-05-05T11:29:47.083Z,54.06
2023-05-05T11:30:47.092Z,53.76
2023-05-05T11:31:47.045Z,52.54
2023-05-05T11:32:47.110Z,53.04
2023-05-05T11:33:47.016Z,52.04
2023-05-05T11:34:46.991Z,51.35
2023-05-05T11:35:46.965Z,51.45
2023-05-05T11:36:47.038Z,50.95
2023-05-05T11:37:46.929Z,49.95
2023-05-05T11:38:46.909Z,50.65
2023-05-05T11:39:46.894Z,52.32
2023-05-05T11:40:46.891Z,53.02
2023-05-05T11:41:46.862Z,54.21
2023-05-05T11:42:46.845Z,51.47
2023-05-05T11:43:46.827Z,53.22
2023-05-05T11:44:46.797Z,56.51
2023-05-05T11:45:46.777Z,57.67
2023-05-05T11:46:46.757Z,51.10
2023-05-05T11:47:46.871Z,51.17
2023-05-05T11:48:46.717Z,54.66
2023-05-05T11:49:46.706Z,54.33
2023-05-05T11:50:46.681Z,54.31
2023-05-05T11:51:46.669Z,53.19
2023-05-05T11:52:46.737Z,53.76
2023-05-05T11:53:46.640Z,51.87
2023-05-05T11:54:46.609Z,53.26
2023-05-05T11:55:46.594Z,52.67
2023-05-05T11:56:46.571Z,49.71
2023-05-05T11:57:46.554Z,49.16
2023-05-05T11:58:46.539Z,49.30
2023-05-05T11:59:49.035Z,54.06
2023-05-05T12:00:46.495Z,55.33
2023-05-05T12:01:46.478Z,52.81
2023-05-05T12:02:46.564Z,50.93
2023-05-05T12:03:46.595Z,49.41
2023-05-05T12:04:46.443Z,47.62
2023-05-05T12:05:46.404Z,49.19
2023-05-05T12:06:46.388Z,47.84
2023-05-05T12:07:46.371Z,48.44
2023-05-05T12:08:46.530Z,51.22
2023-05-05T12:09:46.349Z,48.91
2023-05-05T12:10:46.315Z,48.49
2023-05-05T12:11:46.297Z,47.62
2023-05-05T12:12:46.334Z,48.61
2023-05-05T12:13:46.264Z,53.26
2023-05-05T12:14:46.256Z,52.49
2023-05-05T12:15:46.236Z,52.26
2023-05-05T12:16:46.255Z,52.74
2023-05-05T12:17:46.376Z,50.43
2023-05-05T12:18:46.175Z,50.73
2023-05-05T12:19:46.158Z,48.71
2023-05-05T12:20:46.137Z,51.47
2023-05-05T12:21:46.128Z,47.84
2023-05-05T12:22:46.103Z,49.06
2023-05-05T12:23:46.087Z,51.87
2023-05-05T12:24:46.226Z,50.90
2023-05-05T12:25:46.049Z,50.92
2023-05-05T12:26:46.035Z,51.89
2023-05-05T12:27:46.018Z,50.70
2023-05-05T12:28:46.007Z,50.18
2023-05-05T12:29:45.983Z,51.07
2023-05-05T12:30:46.001Z,49.28
2023-05-05T12:31:46.010Z,50.15
2023-05-05T12:32:45.961Z,51.25
2023-05-05T12:33:45.922Z,48.74
2023-05-05T12:34:45.900Z,47.52
2023-05-05T12:35:45.877Z,50.08
2023-05-05T12:36:45.863Z,49.58
2023-05-05T12:37:45.844Z,48.79
2023-05-05T12:38:45.824Z,48.79
2023-05-05T12:39:45.809Z,51.54
2023-05-05T12:40:46.003Z,49.66
2023-05-05T12:41:45.779Z,50.65
2023-05-05T12:42:46.406Z,52.44
2023-05-05T12:43:45.743Z,49.44
2023-05-05T12:44:45.729Z,50.03
2023-05-05T12:45:45.728Z,49.63
2023-05-05T12:46:45.697Z,49.14
2023-05-05T12:47:45.688Z,51.28
2023-05-05T12:48:47.913Z,49.99
2023-05-05T12:49:45.635Z,48.77
2023-05-05T12:50:45.618Z,44.60
2023-05-05T12:51:45.596Z,48.62